sensor_id;sensor_type;location;lat;lon;timestamp;temperature;humidity
15969;DHT22;8085;53.472;9.794;2023-11-21T00:02:19;9.10;99.90
15969;DHT22;8085;53.472;9.794;2023-11-21T00:04:47;9.10;99.90
15969;DHT22;8085;53.472;9.794;2023-11-21T00:07:15;9.00;99.90
15969;DHT22;8085;53.472;9.794;2023-11-21T00:09:42;9.00;99.90
15969;DHT22;8085;53.472;9.794;2023-11-21T00:12:09;9.00;99.90
15969;DHT22;8085;53.472;9.794;2023-11-21T00:14:36;9.00;99.90
15969;DHT22;8085;53.472;9.794;2023-11-21T00:17:05;9.00;99.90
15969;DHT22;8085;53.472;9.794;2023-11-21T00:19:32;9.00;99.90
15969;DHT22;8085;53.472;9.794;2023-11-21T00:22:00;9.00;99.90
15969;DHT22;8085;53.472;9.794;2023-11-21T00:24:27;9.00;99.90
15969;DHT22;8085;53.472;9.794;2023-11-21T00:26:54;9.00;99.90
15969;DHT22;8085;53.472;9.794;2023-11-21T00:29:20;9.00;99.90
15969;DHT22;8085;53.472;9.794;2023-11-21T00:31:47;9.00;99.90
15969;DHT22;8085;53.472;9.794;2023-11-21T00:34:15;9.00;99.90
15969;DHT22;8085;53.472;9.794;2023-11-21T00:36:42;9.00;99.90
15969;DHT22;8085;53.472;9.794;2023-11-21T00:39:09;9.00;99.90
15969;DHT22;8085;53.472;9.794;2023-11-21T00:41:37;9.00;99.90
15969;DHT22;8085;53.472;9.794;2023-11-21T00:44:04;9.00;99.90
15969;DHT22;8085;53.472;9.794;2023-11-21T00:46:32;8.90;99.90
15969;DHT22;8085;53.472;9.794;2023-11-21T00:48:59;8.90;99.90
15969;DHT22;8085;53.472;9.794;2023-11-21T00:51:27;8.80;99.90
15969;DHT22;8085;53.472;9.794;2023-11-21T00:53:54;8.80;99.90
15969;DHT22;8085;53.472;9.794;2023-11-21T00:56:21;8.70;99.90
15969;DHT22;8085;53.472;9.794;2023-11-21T00:58:47;8.60;99.90
15969;DHT22;8085;53.472;9.794;2023-11-21T01:01:15;8.60;99.90
15969;DHT22;8085;53.472;9.794;2023-11-21T01:03:42;8.60;99.90
15969;DHT22;8085;53.472;9.794;2023-11-21T01:06:09;8.50;99.90
15969;DHT22;8085;53.472;9.794;2023-11-21T01:08:38;8.50;99.90
15969;DHT22;8085;53.472;9.794;2023-11-21T01:11:05;8.50;99.90
15969;DHT22;8085;53.472;9.794;2023-11-21T01:13:33;8.40;99.90
15969;DHT22;8085;53.472;9.794;2023-11-21T01:16:01;8.40;99.90
15969;DHT22;8085;53.472;9.794;2023-11-21T01:18:29;8.40;99.90
15969;DHT22;8085;53.472;9.794;2023-11-21T01:20:56;8.30;99.90
15969;DHT22;8085;53.472;9.794;2023-11-21T01:23:23;8.30;99.90
15969;DHT22;8085;53.472;9.794;2023-11-21T01:25:51;8.20;99.90
15969;DHT22;8085;53.472;9.794;2023-11-21T01:28:18;8.10;99.90
15969;DHT22;8085;53.472;9.794;2023-11-21T01:30:45;8.10;99.90
15969;DHT22;8085;53.472;9.794;2023-11-21T01:33:12;8.00;99.90
15969;DHT22;8085;53.472;9.794;2023-11-21T01:35:38;8.00;99.90
15969;DHT22;8085;53.472;9.794;2023-11-21T01:38:06;7.90;99.90
15969;DHT22;8085;53.472;9.794;2023-11-21T01:40:33;7.90;99.90
15969;DHT22;8085;53.472;9.794;2023-11-21T01:43:02;7.80;99.90
15969;DHT22;8085;53.472;9.794;2023-11-21T01:45:29;7.80;99.90
15969;DHT22;8085;53.472;9.794;2023-11-21T01:47:56;7.80;99.90
15969;DHT22;8085;53.472;9.794;2023-11-21T01:50:24;7.70;99.90
15969;DHT22;8085;53.472;9.794;2023-11-21T01:52:52;7.70;99.90
15969;DHT22;8085;53.472;9.794;2023-11-21T01:55:20;7.60;99.90
15969;DHT22;8085;53.472;9.794;2023-11-21T01:57:46;7.60;99.90
15969;DHT22;8085;53.472;9.794;2023-11-21T02:00:15;7.50;99.90
15969;DHT22;8085;53.472;9.794;2023-11-21T02:02:43;7.50;99.90
15969;DHT22;8085;53.472;9.794;2023-11-21T02:05:10;7.40;99.90
15969;DHT22;8085;53.472;9.794;2023-11-21T02:07:38;7.50;99.90
15969;DHT22;8085;53.472;9.794;2023-11-21T02:10:06;7.40;99.90
15969;DHT22;8085;53.472;9.794;2023-11-21T02:12:33;7.40;99.90
15969;DHT22;8085;53.472;9.794;2023-11-21T02:15:00;7.40;99.90
15969;DHT22;8085;53.472;9.794;2023-11-21T02:17:29;7.30;99.90
15969;DHT22;8085;53.472;9.794;2023-11-21T02:19:58;7.30;99.90
15969;DHT22;8085;53.472;9.794;2023-11-21T02:22:27;7.30;99.90
15969;DHT22;8085;53.472;9.794;2023-11-21T02:24:59;7.20;99.90
15969;DHT22;8085;53.472;9.794;2023-11-21T02:27:26;7.20;99.90
15969;DHT22;8085;53.472;9.794;2023-11-21T02:29:53;7.30;99.90
15969;DHT22;8085;53.472;9.794;2023-11-21T02:32:20;7.10;99.90
15969;DHT22;8085;53.472;9.794;2023-11-21T02:34:48;7.10;99.90
15969;DHT22;8085;53.472;9.794;2023-11-21T02:37:15;7.10;99.90
15969;DHT22;8085;53.472;9.794;2023-11-21T02:39:42;7.10;99.90
15969;DHT22;8085;53.472;9.794;2023-11-21T02:42:10;7.10;99.90
15969;DHT22;8085;53.472;9.794;2023-11-21T02:44:39;7.20;99.90
15969;DHT22;8085;53.472;9.794;2023-11-21T02:47:06;7.20;99.90
15969;DHT22;8085;53.472;9.794;2023-11-21T02:49:32;7.20;99.90
15969;DHT22;8085;53.472;9.794;2023-11-21T02:52:00;7.00;99.90
15969;DHT22;8085;53.472;9.794;2023-11-21T02:54:27;7.00;99.90
15969;DHT22;8085;53.472;9.794;2023-11-21T02:56:54;7.00;99.90
15969;DHT22;8085;53.472;9.794;2023-11-21T02:59:23;6.90;99.90
15969;DHT22;8085;53.472;9.794;2023-11-21T03:01:50;6.90;99.90
15969;DHT22;8085;53.472;9.794;2023-11-21T03:04:16;7.00;99.90
15969;DHT22;8085;53.472;9.794;2023-11-21T03:06:45;6.80;99.90
15969;DHT22;8085;53.472;9.794;2023-11-21T03:09:12;6.80;99.90
15969;DHT22;8085;53.472;9.794;2023-11-21T03:11:39;6.70;99.90
15969;DHT22;8085;53.472;9.794;2023-11-21T03:14:05;6.70;99.90
15969;DHT22;8085;53.472;9.794;2023-11-21T03:16:34;6.70;99.90
15969;DHT22;8085;53.472;9.794;2023-11-21T03:19:03;6.60;99.90
15969;DHT22;8085;53.472;9.794;2023-11-21T03:21:31;6.60;99.90
15969;DHT22;8085;53.472;9.794;2023-11-21T03:23:57;6.60;99.90
15969;DHT22;8085;53.472;9.794;2023-11-21T03:26:25;6.50;99.90
15969;DHT22;8085;53.472;9.794;2023-11-21T03:28:52;6.50;99.90
15969;DHT22;8085;53.472;9.794;2023-11-21T03:31:19;6.40;99.90
15969;DHT22;8085;53.472;9.794;2023-11-21T03:33:47;6.40;99.90
15969;DHT22;8085;53.472;9.794;2023-11-21T03:36:14;6.30;99.90
15969;DHT22;8085;53.472;9.794;2023-11-21T03:38:41;6.40;99.90
15969;DHT22;8085;53.472;9.794;2023-11-21T03:41:08;6.50;99.90
15969;DHT22;8085;53.472;9.794;2023-11-21T03:43:36;6.30;99.90
15969;DHT22;8085;53.472;9.794;2023-11-21T03:46:03;6.30;99.90
15969;DHT22;8085;53.472;9.794;2023-11-21T03:48:30;6.30;99.90
15969;DHT22;8085;53.472;9.794;2023-11-21T03:50:59;6.30;99.90
15969;DHT22;8085;53.472;9.794;2023-11-21T03:53:26;6.30;99.90
15969;DHT22;8085;53.472;9.794;2023-11-21T03:55:53;6.20;99.90
15969;DHT22;8085;53.472;9.794;2023-11-21T03:58:20;6.20;99.90
15969;DHT22;8085;53.472;9.794;2023-11-21T04:00:47;6.20;99.90
15969;DHT22;8085;53.472;9.794;2023-11-21T04:03:14;6.20;99.90
15969;DHT22;8085;53.472;9.794;2023-11-21T04:05:42;6.10;99.90
15969;DHT22;8085;53.472;9.794;2023-11-21T04:08:10;6.10;99.90
15969;DHT22;8085;53.472;9.794;2023-11-21T04:10:37;6.10;99.90
15969;DHT22;8085;53.472;9.794;2023-11-21T04:13:05;6.10;99.90
15969;DHT22;8085;53.472;9.794;2023-11-21T04:15:32;6.10;99.90
15969;DHT22;8085;53.472;9.794;2023-11-21T04:17:59;6.00;99.90
15969;DHT22;8085;53.472;9.794;2023-11-21T04:20:26;6.00;99.90
15969;DHT22;8085;53.472;9.794;2023-11-21T04:22:52;6.00;99.90
15969;DHT22;8085;53.472;9.794;2023-11-21T04:25:21;6.00;99.90
15969;DHT22;8085;53.472;9.794;2023-11-21T04:27:48;6.00;99.90
15969;DHT22;8085;53.472;9.794;2023-11-21T04:30:16;6.00;99.90
15969;DHT22;8085;53.472;9.794;2023-11-21T04:32:42;6.00;99.90
15969;DHT22;8085;53.472;9.794;2023-11-21T04:35:09;6.00;99.90
15969;DHT22;8085;53.472;9.794;2023-11-21T04:37:36;6.00;99.90
15969;DHT22;8085;53.472;9.794;2023-11-21T04:40:04;6.00;99.90
15969;DHT22;8085;53.472;9.794;2023-11-21T04:42:35;6.00;99.90
15969;DHT22;8085;53.472;9.794;2023-11-21T04:45:02;6.00;99.90
15969;DHT22;8085;53.472;9.794;2023-11-21T04:47:33;6.00;99.90
15969;DHT22;8085;53.472;9.794;2023-11-21T04:50:00;6.00;99.90
15969;DHT22;8085;53.472;9.794;2023-11-21T04:52:27;6.00;99.90
15969;DHT22;8085;53.472;9.794;2023-11-21T04:54:53;6.00;99.90
15969;DHT22;8085;53.472;9.794;2023-11-21T04:57:23;6.00;99.90
15969;DHT22;8085;53.472;9.794;2023-11-21T04:59:52;6.00;99.90
15969;DHT22;8085;53.472;9.794;2023-11-21T05:02:19;6.00;99.90
15969;DHT22;8085;53.472;9.794;2023-11-21T05:04:46;6.00;99.90
15969;DHT22;8085;53.472;9.794;2023-11-21T05:07:13;6.00;99.90
15969;DHT22;8085;53.472;9.794;2023-11-21T05:09:42;6.00;99.90
15969;DHT22;8085;53.472;9.794;2023-11-21T05:12:10;6.00;99.90
15969;DHT22;8085;53.472;9.794;2023-11-21T05:14:37;6.00;99.90
15969;DHT22;8085;53.472;9.794;2023-11-21T05:17:05;6.10;99.90
15969;DHT22;8085;53.472;9.794;2023-11-21T05:19:33;6.10;99.90
15969;DHT22;8085;53.472;9.794;2023-11-21T05:22:01;6.00;99.90
15969;DHT22;8085;53.472;9.794;2023-11-21T05:24:28;6.00;99.90
15969;DHT22;8085;53.472;9.794;2023-11-21T05:26:55;6.00;99.90
15969;DHT22;8085;53.472;9.794;2023-11-21T05:29:23;6.10;99.90
15969;DHT22;8085;53.472;9.794;2023-11-21T05:31:51;6.00;99.90
15969;DHT22;8085;53.472;9.794;2023-11-21T05:34:20;6.20;99.90
15969;DHT22;8085;53.472;9.794;2023-11-21T05:36:49;6.00;99.90
15969;DHT22;8085;53.472;9.794;2023-11-21T05:39:16;6.00;99.90
15969;DHT22;8085;53.472;9.794;2023-11-21T05:41:44;6.00;99.90
15969;DHT22;8085;53.472;9.794;2023-11-21T05:44:11;6.00;99.90
15969;DHT22;8085;53.472;9.794;2023-11-21T05:46:40;6.00;99.90
15969;DHT22;8085;53.472;9.794;2023-11-21T05:49:08;5.90;99.90
15969;DHT22;8085;53.472;9.794;2023-11-21T05:51:37;6.00;99.90
15969;DHT22;8085;53.472;9.794;2023-11-21T05:54:06;6.00;99.90
15969;DHT22;8085;53.472;9.794;2023-11-21T05:56:33;6.00;99.90
15969;DHT22;8085;53.472;9.794;2023-11-21T05:59:00;6.00;99.90
15969;DHT22;8085;53.472;9.794;2023-11-21T06:01:28;5.90;99.90
15969;DHT22;8085;53.472;9.794;2023-11-21T06:03:55;5.90;99.90
15969;DHT22;8085;53.472;9.794;2023-11-21T06:06:23;5.90;99.90
15969;DHT22;8085;53.472;9.794;2023-11-21T06:08:52;5.90;99.90
15969;DHT22;8085;53.472;9.794;2023-11-21T06:11:18;5.90;99.90
15969;DHT22;8085;53.472;9.794;2023-11-21T06:13:45;5.90;99.90
15969;DHT22;8085;53.472;9.794;2023-11-21T06:16:13;5.90;99.90
15969;DHT22;8085;53.472;9.794;2023-11-21T06:18:42;5.90;99.90
15969;DHT22;8085;53.472;9.794;2023-11-21T06:21:09;5.90;99.90
15969;DHT22;8085;53.472;9.794;2023-11-21T06:23:36;6.00;99.90
15969;DHT22;8085;53.472;9.794;2023-11-21T06:26:05;5.90;99.90
15969;DHT22;8085;53.472;9.794;2023-11-21T06:28:32;5.90;99.90
15969;DHT22;8085;53.472;9.794;2023-11-21T06:30:59;5.90;99.90
15969;DHT22;8085;53.472;9.794;2023-11-21T06:33:30;5.90;99.90
15969;DHT22;8085;53.472;9.794;2023-11-21T06:35:57;5.90;99.90
15969;DHT22;8085;53.472;9.794;2023-11-21T06:38:25;5.90;99.90
15969;DHT22;8085;53.472;9.794;2023-11-21T06:40:55;6.00;99.90
15969;DHT22;8085;53.472;9.794;2023-11-21T06:43:23;5.90;99.90
15969;DHT22;8085;53.472;9.794;2023-11-21T06:45:51;5.90;99.90
15969;DHT22;8085;53.472;9.794;2023-11-21T06:48:18;5.80;99.90
15969;DHT22;8085;53.472;9.794;2023-11-21T06:50:45;5.80;99.90
15969;DHT22;8085;53.472;9.794;2023-11-21T06:53:12;5.80;99.90
15969;DHT22;8085;53.472;9.794;2023-11-21T06:55:39;5.80;99.90
15969;DHT22;8085;53.472;9.794;2023-11-21T06:58:06;5.80;99.90
15969;DHT22;8085;53.472;9.794;2023-11-21T07:00:34;6.00;99.90
15969;DHT22;8085;53.472;9.794;2023-11-21T07:03:02;5.80;99.90
15969;DHT22;8085;53.472;9.794;2023-11-21T07:05:30;5.90;99.90
15969;DHT22;8085;53.472;9.794;2023-11-21T07:07:58;5.80;99.90
15969;DHT22;8085;53.472;9.794;2023-11-21T07:10:30;5.80;99.90
15969;DHT22;8085;53.472;9.794;2023-11-21T07:12:56;5.80;99.90
15969;DHT22;8085;53.472;9.794;2023-11-21T07:15:23;5.80;99.90
15969;DHT22;8085;53.472;9.794;2023-11-21T07:17:52;5.80;99.90
15969;DHT22;8085;53.472;9.794;2023-11-21T07:20:19;5.80;99.90
15969;DHT22;8085;53.472;9.794;2023-11-21T07:22:47;5.80;99.90
15969;DHT22;8085;53.472;9.794;2023-11-21T07:25:13;5.80;99.90
15969;DHT22;8085;53.472;9.794;2023-11-21T07:27:41;5.80;99.90
15969;DHT22;8085;53.472;9.794;2023-11-21T07:30:11;5.80;99.90
15969;DHT22;8085;53.472;9.794;2023-11-21T07:32:39;5.80;99.90
15969;DHT22;8085;53.472;9.794;2023-11-21T07:35:08;5.80;99.90
15969;DHT22;8085;53.472;9.794;2023-11-21T07:37:35;5.80;99.90
15969;DHT22;8085;53.472;9.794;2023-11-21T07:40:05;5.90;99.90
15969;DHT22;8085;53.472;9.794;2023-11-21T07:42:34;5.80;99.90
15969;DHT22;8085;53.472;9.794;2023-11-21T07:45:01;5.80;99.90
15969;DHT22;8085;53.472;9.794;2023-11-21T07:47:28;5.80;99.90
15969;DHT22;8085;53.472;9.794;2023-11-21T07:49:55;5.90;99.90
15969;DHT22;8085;53.472;9.794;2023-11-21T07:52:23;5.80;99.90
15969;DHT22;8085;53.472;9.794;2023-11-21T07:54:50;6.00;99.90
15969;DHT22;8085;53.472;9.794;2023-11-21T07:57:17;5.90;99.90
15969;DHT22;8085;53.472;9.794;2023-11-21T07:59:44;5.90;99.90
15969;DHT22;8085;53.472;9.794;2023-11-21T08:02:11;5.90;99.90
15969;DHT22;8085;53.472;9.794;2023-11-21T08:04:38;5.90;99.90
15969;DHT22;8085;53.472;9.794;2023-11-21T08:07:05;5.90;99.90
15969;DHT22;8085;53.472;9.794;2023-11-21T08:09:33;5.90;99.90
15969;DHT22;8085;53.472;9.794;2023-11-21T08:12:00;5.90;99.90
15969;DHT22;8085;53.472;9.794;2023-11-21T08:14:28;6.00;99.90
15969;DHT22;8085;53.472;9.794;2023-11-21T08:16:55;6.10;99.90
15969;DHT22;8085;53.472;9.794;2023-11-21T08:19:23;6.00;99.90
15969;DHT22;8085;53.472;9.794;2023-11-21T08:21:51;6.00;99.90
15969;DHT22;8085;53.472;9.794;2023-11-21T08:24:20;6.00;99.90
15969;DHT22;8085;53.472;9.794;2023-11-21T08:26:48;6.10;99.90
15969;DHT22;8085;53.472;9.794;2023-11-21T08:29:16;6.10;99.90
15969;DHT22;8085;53.472;9.794;2023-11-21T08:31:43;6.10;99.90
15969;DHT22;8085;53.472;9.794;2023-11-21T08:34:12;6.10;99.90
15969;DHT22;8085;53.472;9.794;2023-11-21T08:36:41;6.20;99.90
15969;DHT22;8085;53.472;9.794;2023-11-21T08:39:08;6.20;99.90
15969;DHT22;8085;53.472;9.794;2023-11-21T08:41:36;6.20;99.90
15969;DHT22;8085;53.472;9.794;2023-11-21T08:44:04;6.20;99.90
15969;DHT22;8085;53.472;9.794;2023-11-21T08:46:32;6.20;99.90
15969;DHT22;8085;53.472;9.794;2023-11-21T08:49:01;6.20;99.90
15969;DHT22;8085;53.472;9.794;2023-11-21T08:51:27;6.20;99.90
15969;DHT22;8085;53.472;9.794;2023-11-21T08:53:55;6.30;99.90
15969;DHT22;8085;53.472;9.794;2023-11-21T08:56:25;6.30;99.90
15969;DHT22;8085;53.472;9.794;2023-11-21T08:58:52;6.30;99.90
15969;DHT22;8085;53.472;9.794;2023-11-21T09:01:20;6.30;99.90
15969;DHT22;8085;53.472;9.794;2023-11-21T09:03:47;6.30;99.90
15969;DHT22;8085;53.472;9.794;2023-11-21T09:06:17;6.30;99.90
15969;DHT22;8085;53.472;9.794;2023-11-21T09:08:46;6.30;99.90
15969;DHT22;8085;53.472;9.794;2023-11-21T09:11:13;6.30;99.90
15969;DHT22;8085;53.472;9.794;2023-11-21T09:13:40;6.30;99.90
15969;DHT22;8085;53.472;9.794;2023-11-21T09:16:08;6.30;99.90
15969;DHT22;8085;53.472;9.794;2023-11-21T09:18:38;6.30;99.90
15969;DHT22;8085;53.472;9.794;2023-11-21T09:21:06;6.30;99.90
15969;DHT22;8085;53.472;9.794;2023-11-21T09:23:34;6.30;99.90
15969;DHT22;8085;53.472;9.794;2023-11-21T09:26:01;6.30;99.90
15969;DHT22;8085;53.472;9.794;2023-11-21T09:28:28;6.30;99.90
15969;DHT22;8085;53.472;9.794;2023-11-21T09:30:54;6.30;99.90
15969;DHT22;8085;53.472;9.794;2023-11-21T09:33:21;6.30;99.90
15969;DHT22;8085;53.472;9.794;2023-11-21T09:35:51;6.20;99.90
15969;DHT22;8085;53.472;9.794;2023-11-21T09:38:19;6.30;99.90
15969;DHT22;8085;53.472;9.794;2023-11-21T09:40:47;6.20;99.90
15969;DHT22;8085;53.472;9.794;2023-11-21T09:43:16;6.20;99.90
15969;DHT22;8085;53.472;9.794;2023-11-21T09:45:45;6.20;99.90
15969;DHT22;8085;53.472;9.794;2023-11-21T09:48:13;6.10;99.90
15969;DHT22;8085;53.472;9.794;2023-11-21T09:50:42;6.10;99.90
15969;DHT22;8085;53.472;9.794;2023-11-21T09:53:13;6.10;99.90
15969;DHT22;8085;53.472;9.794;2023-11-21T09:55:43;6.10;99.90
15969;DHT22;8085;53.472;9.794;2023-11-21T09:58:10;6.10;99.90
15969;DHT22;8085;53.472;9.794;2023-11-21T10:00:41;6.10;99.90
15969;DHT22;8085;53.472;9.794;2023-11-21T10:03:08;6.10;99.90
15969;DHT22;8085;53.472;9.794;2023-11-21T10:05:35;6.20;99.90
15969;DHT22;8085;53.472;9.794;2023-11-21T10:08:05;6.20;99.90
15969;DHT22;8085;53.472;9.794;2023-11-21T10:10:35;6.10;99.90
15969;DHT22;8085;53.472;9.794;2023-11-21T10:13:03;6.20;99.90
15969;DHT22;8085;53.472;9.794;2023-11-21T10:15:33;6.20;99.90
15969;DHT22;8085;53.472;9.794;2023-11-21T10:18:03;6.20;99.90
15969;DHT22;8085;53.472;9.794;2023-11-21T10:20:32;6.20;99.90
15969;DHT22;8085;53.472;9.794;2023-11-21T10:23:00;6.30;99.90
15969;DHT22;8085;53.472;9.794;2023-11-21T10:25:30;6.30;99.90
15969;DHT22;8085;53.472;9.794;2023-11-21T10:28:01;6.20;99.90
15969;DHT22;8085;53.472;9.794;2023-11-21T10:30:32;6.30;99.90
15969;DHT22;8085;53.472;9.794;2023-11-21T10:33:03;6.30;99.90
15969;DHT22;8085;53.472;9.794;2023-11-21T10:35:42;6.30;99.90
15969;DHT22;8085;53.472;9.794;2023-11-21T10:38:12;6.30;99.90
15969;DHT22;8085;53.472;9.794;2023-11-21T10:40:40;6.50;99.90
15969;DHT22;8085;53.472;9.794;2023-11-21T10:43:09;6.30;99.90
15969;DHT22;8085;53.472;9.794;2023-11-21T10:45:39;6.40;99.90
15969;DHT22;8085;53.472;9.794;2023-11-21T10:48:06;6.40;99.90
15969;DHT22;8085;53.472;9.794;2023-11-21T10:50:34;6.50;99.90
15969;DHT22;8085;53.472;9.794;2023-11-21T10:53:02;6.40;99.90
15969;DHT22;8085;53.472;9.794;2023-11-21T10:55:37;6.50;99.90
15969;DHT22;8085;53.472;9.794;2023-11-21T10:58:04;6.40;99.90
15969;DHT22;8085;53.472;9.794;2023-11-21T11:00:33;6.50;99.90
15969;DHT22;8085;53.472;9.794;2023-11-21T11:03:01;6.50;99.90
15969;DHT22;8085;53.472;9.794;2023-11-21T11:05:29;6.40;99.90
15969;DHT22;8085;53.472;9.794;2023-11-21T11:07:59;6.50;99.90
15969;DHT22;8085;53.472;9.794;2023-11-21T11:10:27;6.50;99.90
15969;DHT22;8085;53.472;9.794;2023-11-21T11:12:55;6.50;99.90
15969;DHT22;8085;53.472;9.794;2023-11-21T11:15:25;6.60;99.90
15969;DHT22;8085;53.472;9.794;2023-11-21T11:17:55;6.60;99.90
15969;DHT22;8085;53.472;9.794;2023-11-21T11:20:25;6.60;99.90
15969;DHT22;8085;53.472;9.794;2023-11-21T11:23:25;6.50;99.90
15969;DHT22;8085;53.472;9.794;2023-11-21T11:26:06;6.60;99.90
15969;DHT22;8085;53.472;9.794;2023-11-21T11:28:41;6.40;99.90
15969;DHT22;8085;53.472;9.794;2023-11-21T11:31:15;6.40;99.90
15969;DHT22;8085;53.472;9.794;2023-11-21T11:33:52;6.40;99.90
15969;DHT22;8085;53.472;9.794;2023-11-21T11:36:25;6.40;99.90
15969;DHT22;8085;53.472;9.794;2023-11-21T11:38:52;6.40;99.90
15969;DHT22;8085;53.472;9.794;2023-11-21T11:41:25;6.30;99.90
15969;DHT22;8085;53.472;9.794;2023-11-21T11:43:53;6.30;99.90
15969;DHT22;8085;53.472;9.794;2023-11-21T11:46:20;6.30;99.90
15969;DHT22;8085;53.472;9.794;2023-11-21T11:49:02;6.40;99.90
15969;DHT22;8085;53.472;9.794;2023-11-21T11:51:29;6.40;99.90
15969;DHT22;8085;53.472;9.794;2023-11-21T11:53:57;6.50;99.90
15969;DHT22;8085;53.472;9.794;2023-11-21T11:56:27;6.40;99.90
15969;DHT22;8085;53.472;9.794;2023-11-21T11:58:57;6.40;99.90
15969;DHT22;8085;53.472;9.794;2023-11-21T12:01:25;6.50;99.90
15969;DHT22;8085;53.472;9.794;2023-11-21T12:04:25;6.60;99.90
15969;DHT22;8085;53.472;9.794;2023-11-21T12:07:01;6.50;99.90
15969;DHT22;8085;53.472;9.794;2023-11-21T12:09:30;6.50;99.90
15969;DHT22;8085;53.472;9.794;2023-11-21T12:11:58;6.60;99.90
15969;DHT22;8085;53.472;9.794;2023-11-21T12:14:25;6.50;99.90
15969;DHT22;8085;53.472;9.794;2023-11-21T12:16:53;6.40;99.90
15969;DHT22;8085;53.472;9.794;2023-11-21T12:19:20;6.40;99.90
15969;DHT22;8085;53.472;9.794;2023-11-21T12:21:49;6.50;99.90
15969;DHT22;8085;53.472;9.794;2023-11-21T12:24:17;6.50;99.90
15969;DHT22;8085;53.472;9.794;2023-11-21T12:26:45;6.40;99.90
15969;DHT22;8085;53.472;9.794;2023-11-21T12:29:12;6.30;99.90
15969;DHT22;8085;53.472;9.794;2023-11-21T12:31:39;6.30;99.90
15969;DHT22;8085;53.472;9.794;2023-11-21T12:34:07;6.30;99.90
15969;DHT22;8085;53.472;9.794;2023-11-21T12:36:37;6.30;99.90
15969;DHT22;8085;53.472;9.794;2023-11-21T12:39:05;6.30;99.90
15969;DHT22;8085;53.472;9.794;2023-11-21T12:41:34;6.30;99.90
15969;DHT22;8085;53.472;9.794;2023-11-21T12:44:01;6.20;99.90
15969;DHT22;8085;53.472;9.794;2023-11-21T12:46:28;6.20;99.90
15969;DHT22;8085;53.472;9.794;2023-11-21T12:48:58;6.20;99.90
15969;DHT22;8085;53.472;9.794;2023-11-21T12:51:26;6.20;99.90
15969;DHT22;8085;53.472;9.794;2023-11-21T12:53:55;6.20;99.90
15969;DHT22;8085;53.472;9.794;2023-11-21T12:56:24;6.10;99.90
15969;DHT22;8085;53.472;9.794;2023-11-21T12:58:54;6.20;99.90
15969;DHT22;8085;53.472;9.794;2023-11-21T13:01:25;6.10;99.90
15969;DHT22;8085;53.472;9.794;2023-11-21T13:03:57;6.10;99.90
15969;DHT22;8085;53.472;9.794;2023-11-21T13:06:25;6.10;99.90
15969;DHT22;8085;53.472;9.794;2023-11-21T13:08:52;6.10;99.90
15969;DHT22;8085;53.472;9.794;2023-11-21T13:11:19;6.00;99.90
15969;DHT22;8085;53.472;9.794;2023-11-21T13:13:47;6.00;99.90
15969;DHT22;8085;53.472;9.794;2023-11-21T13:16:18;6.00;99.90
15969;DHT22;8085;53.472;9.794;2023-11-21T13:18:46;6.00;99.90
15969;DHT22;8085;53.472;9.794;2023-11-21T13:21:13;6.00;99.90
15969;DHT22;8085;53.472;9.794;2023-11-21T13:23:41;5.90;99.90
15969;DHT22;8085;53.472;9.794;2023-11-21T13:26:09;5.90;99.90
15969;DHT22;8085;53.472;9.794;2023-11-21T13:28:37;5.90;99.90
15969;DHT22;8085;53.472;9.794;2023-11-21T13:31:07;5.90;99.90
15969;DHT22;8085;53.472;9.794;2023-11-21T13:33:48;5.80;99.90
15969;DHT22;8085;53.472;9.794;2023-11-21T13:36:47;5.80;99.90
15969;DHT22;8085;53.472;9.794;2023-11-21T13:39:18;5.80;99.90
15969;DHT22;8085;53.472;9.794;2023-11-21T13:41:48;5.80;99.90
15969;DHT22;8085;53.472;9.794;2023-11-21T13:44:20;5.80;99.90
15969;DHT22;8085;53.472;9.794;2023-11-21T13:46:53;5.80;99.90
15969;DHT22;8085;53.472;9.794;2023-11-21T13:49:22;5.80;99.90
15969;DHT22;8085;53.472;9.794;2023-11-21T13:51:49;5.90;99.90
15969;DHT22;8085;53.472;9.794;2023-11-21T13:54:18;5.80;99.90
15969;DHT22;8085;53.472;9.794;2023-11-21T13:56:49;5.80;99.90
15969;DHT22;8085;53.472;9.794;2023-11-21T13:59:16;5.90;99.90
15969;DHT22;8085;53.472;9.794;2023-11-21T14:01:46;5.80;99.90
15969;DHT22;8085;53.472;9.794;2023-11-21T14:04:24;5.80;99.90
15969;DHT22;8085;53.472;9.794;2023-11-21T14:07:20;5.80;99.90
15969;DHT22;8085;53.472;9.794;2023-11-21T14:09:58;5.80;99.90
15969;DHT22;8085;53.472;9.794;2023-11-21T14:12:26;5.80;99.90
15969;DHT22;8085;53.472;9.794;2023-11-21T14:14:54;5.80;99.90
15969;DHT22;8085;53.472;9.794;2023-11-21T14:17:21;5.80;99.90
15969;DHT22;8085;53.472;9.794;2023-11-21T14:19:51;5.80;99.90
15969;DHT22;8085;53.472;9.794;2023-11-21T14:22:18;5.70;99.90
15969;DHT22;8085;53.472;9.794;2023-11-21T14:24:46;5.70;99.90
15969;DHT22;8085;53.472;9.794;2023-11-21T14:27:13;5.70;99.90
15969;DHT22;8085;53.472;9.794;2023-11-21T14:29:40;5.70;99.90
15969;DHT22;8085;53.472;9.794;2023-11-21T14:32:10;5.70;99.90
15969;DHT22;8085;53.472;9.794;2023-11-21T14:34:37;5.70;99.90
15969;DHT22;8085;53.472;9.794;2023-11-21T14:37:05;5.70;99.90
15969;DHT22;8085;53.472;9.794;2023-11-21T14:39:32;5.70;99.90
15969;DHT22;8085;53.472;9.794;2023-11-21T14:42:04;5.70;99.90
15969;DHT22;8085;53.472;9.794;2023-11-21T14:44:33;5.70;99.90
15969;DHT22;8085;53.472;9.794;2023-11-21T14:47:04;5.70;99.90
15969;DHT22;8085;53.472;9.794;2023-11-21T14:49:35;5.70;99.90
15969;DHT22;8085;53.472;9.794;2023-11-21T14:52:18;5.70;99.90
15969;DHT22;8085;53.472;9.794;2023-11-21T14:54:57;5.70;99.90
15969;DHT22;8085;53.472;9.794;2023-11-21T14:57:45;5.70;99.90
15969;DHT22;8085;53.472;9.794;2023-11-21T15:00:16;5.60;99.90
15969;DHT22;8085;53.472;9.794;2023-11-21T15:02:57;5.60;99.90
15969;DHT22;8085;53.472;9.794;2023-11-21T15:05:25;5.60;99.90
15969;DHT22;8085;53.472;9.794;2023-11-21T15:07:54;5.60;99.90
15969;DHT22;8085;53.472;9.794;2023-11-21T15:10:23;5.60;99.90
15969;DHT22;8085;53.472;9.794;2023-11-21T15:13:03;5.60;99.90
15969;DHT22;8085;53.472;9.794;2023-11-21T15:15:32;5.60;99.90
15969;DHT22;8085;53.472;9.794;2023-11-21T15:18:00;5.50;99.90
15969;DHT22;8085;53.472;9.794;2023-11-21T15:20:27;5.60;99.90
15969;DHT22;8085;53.472;9.794;2023-11-21T15:22:55;5.50;99.90
15969;DHT22;8085;53.472;9.794;2023-11-21T15:25:22;5.50;99.90
15969;DHT22;8085;53.472;9.794;2023-11-21T15:27:49;5.50;99.90
15969;DHT22;8085;53.472;9.794;2023-11-21T15:30:16;5.50;99.90
15969;DHT22;8085;53.472;9.794;2023-11-21T15:32:45;5.40;99.90
15969;DHT22;8085;53.472;9.794;2023-11-21T15:35:12;5.40;99.90
15969;DHT22;8085;53.472;9.794;2023-11-21T15:37:40;5.40;99.90
15969;DHT22;8085;53.472;9.794;2023-11-21T15:40:11;5.40;99.90
15969;DHT22;8085;53.472;9.794;2023-11-21T15:42:40;5.40;99.90
15969;DHT22;8085;53.472;9.794;2023-11-21T15:45:07;5.40;99.90
15969;DHT22;8085;53.472;9.794;2023-11-21T15:47:35;5.40;99.90
15969;DHT22;8085;53.472;9.794;2023-11-21T15:50:02;5.40;99.90
15969;DHT22;8085;53.472;9.794;2023-11-21T15:52:29;5.40;99.90
15969;DHT22;8085;53.472;9.794;2023-11-21T15:54:56;5.40;99.90
15969;DHT22;8085;53.472;9.794;2023-11-21T15:57:24;5.40;99.90
15969;DHT22;8085;53.472;9.794;2023-11-21T15:59:51;5.30;99.90
15969;DHT22;8085;53.472;9.794;2023-11-21T16:02:18;5.30;99.90
15969;DHT22;8085;53.472;9.794;2023-11-21T16:04:45;5.30;99.90
15969;DHT22;8085;53.472;9.794;2023-11-21T16:07:12;5.30;99.90
15969;DHT22;8085;53.472;9.794;2023-11-21T16:09:40;5.20;99.90
15969;DHT22;8085;53.472;9.794;2023-11-21T16:12:08;5.20;99.90